Time;durP1;ratioP1;P1;durP2;ratioP2;P2;SDS_P1;SDS_P2;PMS_P1;PMS_P2;Temp;Humidity;BMP_temperature;BMP_pressure;BME280_temperature;BME280_humidity;BME280_pressure;Samples;Min_cycle;Max_cycle;Signal;HPM_P1;HPM_P2
2021/12/10 00:01:42;;;;;;;129.90;116.00;;;5.50;98.70;;;;;;5075278;28;20530;-76
2021/12/10 00:04:11;;;;;;;130.18;116.25;;;5.50;98.70;;;;;;5075477;28;20049;-76
2021/12/10 00:06:41;;;;;;;128.93;114.30;;;5.40;98.60;;;;;;5056572;28;20541;-76
2021/12/10 00:09:19;;;;;;;130.70;116.75;;;5.50;98.70;;;;;;5075710;28;20055;-76
2021/12/10 00:11:51;;;;;;;127.45;113.97;;;5.50;98.60;;;;;;5075388;28;20604;-76
2021/12/10 00:14:19;;;;;;;130.52;116.32;;;5.50;98.70;;;;;;5056945;28;20064;-76
2021/12/10 00:16:46;;;;;;;131.02;116.95;;;5.50;98.70;;;;;;5040495;28;20048;-76
2021/12/10 00:19:26;;;;;;;128.65;113.93;;;5.50;98.70;;;;;;5056908;28;20048;-76
2021/12/10 00:21:55;;;;;;;128.32;114.38;;;5.50;98.70;;;;;;5056605;28;20135;-76
2021/12/10 00:24:25;;;;;;;130.55;116.55;;;5.50;98.70;;;;;;5057002;28;20498;-76
2021/12/10 00:26:54;;;;;;;132.18;117.72;;;5.50;98.70;;;;;;5039246;28;20053;-76
2021/12/10 00:29:21;;;;;;;131.05;116.78;;;5.50;98.70;;;;;;5056650;28;20079;-76
2021/12/10 00:31:54;;;;;;;130.68;116.55;;;5.50;98.70;;;;;;5056912;28;20081;-76
2021/12/10 00:34:26;;;;;;;129.43;115.72;;;5.60;98.70;;;;;;5056972;28;20044;-76
2021/12/10 00:36:55;;;;;;;127.85;114.32;;;5.60;98.70;;;;;;5074474;28;20092;-76
2021/12/10 00:39:26;;;;;;;129.60;115.93;;;5.50;98.60;;;;;;5055996;28;20049;-76
2021/12/10 00:41:57;;;;;;;127.50;113.93;;;5.60;98.60;;;;;;5056234;28;20045;-76
2021/12/10 00:44:24;;;;;;;133.30;114.65;;;5.60;98.50;;;;;;5056553;28;20135;-76
2021/12/10 00:46:52;;;;;;;127.10;113.65;;;5.70;98.40;;;;;;5056308;28;20053;-76
2021/12/10 00:49:19;;;;;;;128.32;114.72;;;5.70;98.30;;;;;;5039419;28;20059;-76
2021/12/10 00:51:46;;;;;;;129.27;115.80;;;5.60;98.30;;;;;;5056737;28;20049;-76
2021/12/10 00:54:15;;;;;;;127.53;113.85;;;5.60;98.30;;;;;;5055737;28;20140;-76
2021/12/10 00:56:44;;;;;;;127.65;114.10;;;5.70;98.20;;;;;;5055302;28;20134;-76
2021/12/10 00:59:13;;;;;;;127.05;113.45;;;5.60;98.20;;;;;;5055647;28;20123;-76
2021/12/10 01:01:42;;;;;;;126.40;112.90;;;5.70;98.20;;;;;;5055658;28;20124;-76
2021/12/10 01:04:12;;;;;;;126.22;112.38;;;5.70;98.00;;;;;;5054791;28;20128;-76
2021/12/10 01:06:43;;;;;;;124.57;111.07;;;5.70;98.00;;;;;;5074246;28;20049;-76
2021/12/10 01:09:13;;;;;;;121.60;108.38;;;5.70;97.70;;;;;;5074621;28;20495;-77
2021/12/10 01:11:43;;;;;;;124.90;111.45;;;5.70;97.80;;;;;;5055962;28;20137;-76
2021/12/10 01:14:21;;;;;;;125.28;111.70;;;5.70;97.70;;;;;;5039260;28;20107;-76
2021/12/10 01:25:13;;;;;;;122.50;109.38;;;5.60;97.70;;;;;;5055819;28;20083;-76
2021/12/10 01:27:45;;;;;;;121.70;108.65;;;5.50;97.80;;;;;;5055818;28;20053;-76
2021/12/10 01:30:19;;;;;;;121.85;108.68;;;5.50;97.80;;;;;;5039468;28;20079;-76
2021/12/10 01:32:50;;;;;;;123.50;110.43;;;5.50;97.90;;;;;;5055792;28;20426;-76
2021/12/10 01:35:21;;;;;;;122.30;109.38;;;5.60;97.80;;;;;;5055616;28;20136;-76
2021/12/10 01:37:49;;;;;;;121.97;109.45;;;5.60;97.60;;;;;;5055384;28;20052;-76
2021/12/10 01:40:20;;;;;;;121.55;108.60;;;5.50;97.60;;;;;;5038763;28;20152;-76
2021/12/10 01:42:50;;;;;;;120.35;107.63;;;5.60;97.60;;;;;;5055384;28;20046;-76
2021/12/10 01:45:22;;;;;;;120.57;107.55;;;5.50;97.60;;;;;;5055050;28;20507;-76
2021/12/10 01:47:54;;;;;;;119.85;107.15;;;5.50;97.60;;;;;;5055603;28;20430;-76
2021/12/10 01:50:22;;;;;;;119.35;107.05;;;5.50;97.60;;;;;;5073130;28;20059;-76
2021/12/10 01:52:54;;;;;;;118.93;106.22;;;5.50;97.60;;;;;;5073643;28;20060;-76
2021/12/10 01:55:23;;;;;;;120.45;107.72;;;5.50;97.60;;;;;;5038809;28;20056;-76
2021/12/10 01:57:53;;;;;;;119.13;106.38;;;5.50;97.60;;;;;;5055106;28;20055;-76
2021/12/10 02:00:25;;;;;;;121.25;107.95;;;5.40;97.60;;;;;;5055226;28;20085;-76
2021/12/10 02:02:52;;;;;;;120.22;107.78;;;5.40;97.60;;;;;;5073344;28;20107;-76
2021/12/10 02:05:20;;;;;;;120.32;107.85;;;5.40;97.60;;;;;;5054905;28;20063;-76
2021/12/10 02:07:47;;;;;;;121.65;108.95;;;5.40;97.60;;;;;;5055129;28;20903;-76
2021/12/10 02:10:18;;;;;;;123.57;110.47;;;5.40;97.50;;;;;;5038636;28;20059;-76
2021/12/10 02:12:46;;;;;;;120.88;108.25;;;5.40;97.50;;;;;;5038684;28;20132;-75
2021/12/10 02:15:14;;;;;;;123.07;107.75;;;5.40;97.50;;;;;;5055483;28;20141;-75
2021/12/10 02:17:47;;;;;;;121.13;107.90;;;5.40;97.70;;;;;;5055133;28;20120;-76
2021/12/10 02:20:19;;;;;;;119.63;107.10;;;5.30;97.60;;;;;;5055065;28;20345;-76
2021/12/10 02:22:47;;;;;;;123.85;110.95;;;5.30;97.70;;;;;;5054721;28;20060;-75
2021/12/10 02:25:17;;;;;;;122.78;109.88;;;5.40;97.70;;;;;;5054881;28;20145;-76
2021/12/10 02:27:44;;;;;;;120.78;108.10;;;5.30;97.70;;;;;;5055325;28;20110;-76
2021/12/10 02:30:13;;;;;;;120.07;107.78;;;5.40;97.60;;;;;;5073217;28;20056;-75
2021/12/10 02:32:40;;;;;;;121.90;109.07;;;5.30;97.60;;;;;;5073213;28;20049;-76
2021/12/10 02:35:12;;;;;;;121.05;108.43;;;5.30;97.70;;;;;;5072739;28;20482;-75
2021/12/10 02:37:39;;;;;;;119.85;106.78;;;5.30;97.60;;;;;;5054984;28;20577;-75
2021/12/10 02:40:10;;;;;;;121.03;108.57;;;5.30;97.60;;;;;;5072854;28;20084;-75
2021/12/10 02:42:37;;;;;;;120.40;107.88;;;5.30;97.50;;;;;;5055058;28;20056;-75
2021/12/10 02:45:06;;;;;;;121.07;108.07;;;5.40;97.30;;;;;;5054499;28;20120;-76
2021/12/10 02:47:33;;;;;;;117.78;105.50;;;5.40;97.30;;;;;;5054988;28;20521;-75
2021/12/10 02:50:01;;;;;;;120.07;107.68;;;5.30;97.30;;;;;;5054578;28;20124;-75
2021/12/10 02:52:28;;;;;;;120.13;106.72;;;5.30;97.40;;;;;;5038245;28;20037;-76
2021/12/10 02:54:57;;;;;;;120.50;107.85;;;5.40;97.20;;;;;;5054852;28;20048;-75
2021/12/10 02:57:27;;;;;;;118.30;105.63;;;5.30;97.20;;;;;;5054695;28;20060;-75
2021/12/10 02:59:54;;;;;;;118.43;105.95;;;5.30;97.20;;;;;;5054777;28;20064;-75
2021/12/10 03:02:24;;;;;;;118.32;105.95;;;5.30;97.30;;;;;;5039586;28;20439;-75
2021/12/10 03:04:52;;;;;;;118.65;106.25;;;5.30;97.40;;;;;;5057683;28;20064;-75
2021/12/10 03:07:21;;;;;;;120.50;107.75;;;5.30;97.40;;;;;;5076139;28;20430;-76
2021/12/10 03:09:51;;;;;;;119.65;107.05;;;5.30;97.50;;;;;;5076408;28;20076;-76
2021/12/10 03:12:21;;;;;;;120.07;107.60;;;5.30;97.40;;;;;;5057967;28;20052;-75
2021/12/10 03:14:52;;;;;;;120.22;107.65;;;5.30;97.30;;;;;;5040738;28;20141;-75
2021/12/10 03:17:23;;;;;;;120.78;107.97;;;5.30;97.30;;;;;;5076497;28;20056;-75
2021/12/10 03:19:50;;;;;;;118.18;105.78;;;5.30;97.30;;;;;;5057872;28;20080;-75
2021/12/10 03:22:18;;;;;;;121.57;109.20;;;5.30;97.00;;;;;;5057795;28;20056;-75
2021/12/10 03:24:45;;;;;;;123.78;111.18;;;5.20;97.00;;;;;;5057438;28;20131;-75
2021/12/10 03:27:14;;;;;;;123.35;110.55;;;5.20;97.00;;;;;;5057528;28;20144;-75
2021/12/10 03:29:45;;;;;;;121.97;109.43;;;5.20;97.00;;;;;;5075808;28;20585;-75
2021/12/10 03:32:16;;;;;;;124.82;111.45;;;5.20;97.00;;;;;;5041266;28;20618;-75
2021/12/10 03:34:44;;;;;;;122.13;109.65;;;5.10;97.10;;;;;;5057471;28;20063;-75
2021/12/10 03:37:11;;;;;;;121.28;108.63;;;5.10;97.10;;;;;;5057482;28;20514;-75
2021/12/10 03:39:38;;;;;;;119.53;107.18;;;5.10;97.00;;;;;;5057581;28;20059;-75
2021/12/10 03:42:07;;;;;;;120.88;108.47;;;5.10;96.70;;;;;;5057524;28;20052;-75
2021/12/10 03:44:35;;;;;;;121.07;108.57;;;5.10;96.70;;;;;;5075981;28;20148;-75
2021/12/10 03:47:05;;;;;;;121.93;109.40;;;5.00;96.70;;;;;;5057504;28;20136;-75
2021/12/10 03:49:35;;;;;;;120.05;107.38;;;5.00;96.80;;;;;;5040864;28;20059;-75
2021/12/10 03:52:02;;;;;;;120.25;107.80;;;5.00;96.90;;;;;;5057314;28;20537;-75
2021/12/10 03:54:30;;;;;;;119.20;106.82;;;5.00;97.00;;;;;;5057211;28;20385;-75
2021/12/10 03:56:57;;;;;;;118.28;106.15;;;5.00;97.10;;;;;;5057159;28;20048;-75
2021/12/10 03:59:25;;;;;;;120.53;108.07;;;5.00;97.10;;;;;;5056894;28;20059;-75
2021/12/10 04:01:55;;;;;;;119.22;107.10;;;5.00;97.10;;;;;;5040589;28;20049;-75
2021/12/10 04:04:24;;;;;;;120.25;107.80;;;4.90;97.10;;;;;;5056987;28;20524;-76
2021/12/10 04:06:55;;;;;;;119.88;107.35;;;4.90;97.20;;;;;;5057027;28;20065;-75
2021/12/10 04:09:23;;;;;;;120.07;108.00;;;4.90;97.30;;;;;;5040685;28;20052;-75
2021/12/10 04:11:51;;;;;;;121.05;108.65;;;4.90;97.20;;;;;;5075270;28;20049;-75
2021/12/10 04:14:18;;;;;;;120.45;107.65;;;4.90;97.20;;;;;;5056508;28;20130;-75
2021/12/10 04:16:45;;;;;;;120.03;107.45;;;4.90;97.30;;;;;;5075113;28;20127;-75
2021/12/10 04:19:14;;;;;;;121.88;109.25;;;4.90;97.30;;;;;;5056808;28;20060;-75
2021/12/10 04:21:43;;;;;;;121.03;108.53;;;4.90;97.40;;;;;;5074770;28;20150;-75
2021/12/10 04:24:15;;;;;;;120.57;107.82;;;4.90;97.40;;;;;;5056744;28;20132;-75
2021/12/10 04:26:42;;;;;;;119.80;107.65;;;4.80;97.40;;;;;;5056456;28;20127;-75
2021/12/10 04:29:09;;;;;;;121.70;109.13;;;4.90;97.50;;;;;;5057104;28;20177;-75
2021/12/10 04:31:37;;;;;;;121.80;109.18;;;4.90;97.40;;;;;;5040084;28;20171;-75
2021/12/10 04:34:04;;;;;;;120.75;108.50;;;4.90;97.50;;;;;;5056707;28;20508;-75
2021/12/10 04:36:33;;;;;;;121.50;109.13;;;4.90;97.60;;;;;;5056685;28;20060;-75
2021/12/10 04:39:01;;;;;;;121.70;109.25;;;4.90;97.50;;;;;;5056641;28;20065;-75
2021/12/10 04:41:29;;;;;;;121.38;109.05;;;4.90;97.50;;;;;;5056007;28;20045;-75
2021/12/10 04:43:56;;;;;;;123.45;110.88;;;5.00;97.50;;;;;;5061947;28;20064;-76
2021/12/10 04:46:23;;;;;;;123.28;110.55;;;5.00;97.50;;;;;;5066493;28;20045;-76
2021/12/10 04:48:57;;;;;;;120.68;108.47;;;5.00;97.50;;;;;;5061224;28;20165;-75
2021/12/10 04:51:28;;;;;;;120.63;108.18;;;5.00;97.50;;;;;;5064738;28;20045;-76
2021/12/10 04:53:56;;;;;;;121.07;108.53;;;5.00;97.60;;;;;;4984938;28;20048;-76
2021/12/10 04:56:23;;;;;;;120.43;108.00;;;5.10;97.70;;;;;;5067855;28;20396;-75
2021/12/10 04:58:52;;;;;;;120.75;108.45;;;5.10;97.60;;;;;;5062692;28;20063;-76
2021/12/10 05:01:19;;;;;;;118.95;106.93;;;5.10;97.40;;;;;;5049716;28;20092;-75
2021/12/10 05:03:46;;;;;;;119.90;108.00;;;5.10;97.30;;;;;;5083664;28;20127;-75
2021/12/10 05:06:14;;;;;;;120.13;107.93;;;5.10;97.30;;;;;;5065024;28;20556;-75
2021/12/10 05:08:41;;;;;;;123.75;111.47;;;5.10;97.30;;;;;;5067447;28;20136;-76
2021/12/10 05:11:10;;;;;;;123.25;110.57;;;5.10;97.30;;;;;;5075550;28;20641;-75
2021/12/10 05:13:39;;;;;;;121.05;109.10;;;5.20;97.30;;;;;;5075423;28;20048;-75
2021/12/10 05:16:08;;;;;;;123.47;110.97;;;5.20;97.40;;;;;;5075414;28;20503;-75
2021/12/10 05:18:39;;;;;;;122.57;110.50;;;5.20;97.40;;;;;;5075193;28;20048;-76
2021/12/10 05:21:08;;;;;;;123.25;110.93;;;5.20;97.40;;;;;;5094351;28;20053;-75
2021/12/10 05:23:35;;;;;;;123.07;110.25;;;5.30;97.50;;;;;;5056294;28;20506;-75
2021/12/10 05:26:04;;;;;;;123.65;111.55;;;5.40;97.50;;;;;;5053707;28;20515;-75
2021/12/10 05:28:31;;;;;;;124.28;111.93;;;5.40;97.30;;;;;;5055670;28;20052;-75
2021/12/10 05:30:59;;;;;;;124.50;112.30;;;5.30;97.30;;;;;;5055636;28;20124;-75
2021/12/10 05:33:29;;;;;;;123.20;110.95;;;5.40;97.30;;;;;;5055671;28;20513;-75
2021/12/10 05:35:58;;;;;;;123.15;110.68;;;5.40;97.20;;;;;;5055324;28;20049;-75
2021/12/10 05:38:26;;;;;;;122.13;110.28;;;5.30;96.90;;;;;;5055708;28;20435;-75
2021/12/10 05:40:54;;;;;;;122.82;110.47;;;5.20;96.70;;;;;;5055283;28;20071;-75
2021/12/10 05:43:22;;;;;;;122.70;110.30;;;5.10;96.70;;;;;;5055476;28;20059;-75
2021/12/10 05:45:50;;;;;;;121.43;109.30;;;5.10;96.80;;;;;;5055537;28;20495;-75
2021/12/10 05:48:18;;;;;;;122.93;110.90;;;5.10;97.00;;;;;;5055444;28;20049;-75
2021/12/10 05:50:48;;;;;;;121.35;109.22;;;5.10;97.10;;;;;;5055237;28;20162;-75
2021/12/10 05:53:15;;;;;;;121.85;109.85;;;5.20;97.20;;;;;;5054972;28;20059;-75
2021/12/10 05:55:43;;;;;;;120.03;108.22;;;5.20;97.10;;;;;;5055247;28;20687;-75
2021/12/10 05:58:11;;;;;;;122.90;110.65;;;5.10;96.80;;;;;;5055622;28;20052;-75
2021/12/10 06:00:44;;;;;;;120.63;108.82;;;5.20;97.00;;;;;;5073530;28;20053;-75
2021/12/10 06:03:12;;;;;;;120.78;108.85;;;5.20;96.90;;;;;;5038704;28;20059;-75
2021/12/10 06:05:40;;;;;;;121.50;109.63;;;5.20;97.00;;;;;;5054653;28;20056;-75
2021/12/10 06:08:09;;;;;;;119.95;108.25;;;5.20;97.10;;;;;;5038919;28;20466;-75
2021/12/10 06:10:37;;;;;;;118.88;107.22;;;5.20;97.00;;;;;;5055312;28;20056;-75
2021/12/10 06:13:05;;;;;;;117.57;106.03;;;5.30;97.00;;;;;;5073459;28;20573;-75
2021/12/10 06:15:32;;;;;;;118.97;107.13;;;5.30;97.00;;;;;;5038415;28;20499;-75
2021/12/10 06:17:59;;;;;;;120.30;108.55;;;5.30;96.90;;;;;;5055351;28;20061;-75
2021/12/10 06:20:31;;;;;;;120.35;108.70;;;5.30;96.70;;;;;;5072378;28;20056;-75
2021/12/10 06:22:59;;;;;;;121.70;109.75;;;5.20;96.60;;;;;;5073178;28;20558;-75
2021/12/10 06:25:28;;;;;;;119.47;107.88;;;5.30;96.80;;;;;;5037933;28;20048;-75
2021/12/10 06:27:55;;;;;;;115.47;104.25;;;5.30;96.80;;;;;;5073041;28;20075;-75
2021/12/10 06:30:28;;;;;;;117.78;106.07;;;5.30;96.60;;;;;;5054632;28;20080;-75
2021/12/10 06:32:56;;;;;;;119.82;108.13;;;5.20;96.40;;;;;;5038068;28;20044;-75
2021/12/10 06:35:25;;;;;;;117.45;105.85;;;5.20;96.50;;;;;;5054520;28;20059;-75
2021/12/10 06:37:53;;;;;;;118.10;106.65;;;5.20;96.60;;;;;;5054530;28;20514;-75
2021/12/10 06:40:24;;;;;;;117.15;105.75;;;5.20;96.50;;;;;;5054544;28;20601;-75
2021/12/10 06:42:53;;;;;;;117.95;106.40;;;5.20;96.60;;;;;;5054975;28;20068;-75
2021/12/10 06:45:26;;;;;;;119.85;108.25;;;5.20;96.50;;;;;;5054030;28;20107;-75
2021/12/10 06:47:55;;;;;;;115.65;104.28;;;5.20;96.50;;;;;;5054072;28;20053;-75
2021/12/10 06:50:25;;;;;;;121.10;109.20;;;5.20;96.30;;;;;;5054172;28;20052;-75
2021/12/10 06:52:52;;;;;;;119.15;107.55;;;5.20;96.30;;;;;;5042291;28;20048;-75
2021/12/10 06:55:20;;;;;;;119.20;107.20;;;5.20;96.30;;;;;;5064427;28;20754;-75
2021/12/10 06:57:47;;;;;;;116.22;104.63;;;5.10;96.40;;;;;;5076180;28;20759;-75
2021/12/10 07:00:21;;;;;;;118.45;106.85;;;5.20;96.40;;;;;;5072997;28;20041;-76
2021/12/10 07:02:48;;;;;;;118.40;106.90;;;5.20;96.30;;;;;;5053744;28;20776;-75
2021/12/10 07:05:16;;;;;;;120.05;108.57;;;5.20;96.10;;;;;;5037210;28;20515;-75
2021/12/10 07:07:43;;;;;;;118.35;107.05;;;5.20;96.20;;;;;;5072125;28;20057;-75
2021/12/10 07:10:11;;;;;;;118.82;107.32;;;5.20;96.20;;;;;;5071506;28;20501;-75
2021/12/10 07:12:39;;;;;;;119.63;108.05;;;5.20;96.30;;;;;;5053364;28;20132;-75
2021/12/10 07:15:10;;;;;;;119.00;107.43;;;5.20;96.10;;;;;;5053001;28;20165;-75
2021/12/10 07:17:40;;;;;;;119.18;107.68;;;5.10;95.80;;;;;;5034299;28;20073;-75
2021/12/10 07:20:09;;;;;;;120.07;108.30;;;5.10;96.00;;;;;;5052793;28;20053;-75
2021/12/10 07:22:37;;;;;;;121.88;110.07;;;5.10;96.00;;;;;;5061173;28;20056;-76
2021/12/10 07:25:06;;;;;;;120.43;109.03;;;5.10;96.20;;;;;;5070502;28;20053;-76
2021/12/10 07:27:33;;;;;;;120.70;109.28;;;5.10;96.00;;;;;;5051243;28;20497;-76
2021/12/10 07:30:00;;;;;;;118.95;107.45;;;5.10;95.90;;;;;;5071096;28;20488;-75
2021/12/10 07:32:27;;;;;;;120.10;108.55;;;5.10;95.90;;;;;;5052747;28;20064;-76
2021/12/10 07:34:55;;;;;;;118.13;106.72;;;5.10;96.10;;;;;;5050773;28;20049;-76
2021/12/10 07:37:22;;;;;;;118.07;106.75;;;5.10;95.90;;;;;;5052354;28;20056;-76
2021/12/10 07:39:49;;;;;;;119.10;107.55;;;5.10;95.80;;;;;;5068731;28;20049;-76
2021/12/10 07:42:16;;;;;;;118.72;107.05;;;5.10;95.80;;;;;;5052943;28;20175;-76
2021/12/10 07:44:43;;;;;;;119.35;107.95;;;5.10;95.80;;;;;;5070838;28;20135;-75
2021/12/10 07:47:14;;;;;;;117.88;106.47;;;5.10;95.80;;;;;;5069159;28;20083;-76
2021/12/10 07:49:42;;;;;;;118.90;107.25;;;5.10;95.70;;;;;;5055234;28;20132;-76
2021/12/10 07:52:18;;;;;;;118.15;106.60;;;5.10;95.70;;;;;;5056687;28;20092;-75
2021/12/10 07:54:47;;;;;;;116.50;105.30;;;5.00;95.50;;;;;;5056497;28;20057;-76
2021/12/10 07:57:15;;;;;;;118.50;107.00;;;5.00;95.60;;;;;;5056500;28;20049;-76
2021/12/10 07:59:43;;;;;;;118.88;107.35;;;5.00;95.70;;;;;;5057559;28;20103;-76
2021/12/10 08:02:10;;;;;;;120.18;108.78;;;5.00;95.60;;;;;;5086914;28;20074;-75
2021/12/10 08:04:37;;;;;;;119.63;107.93;;;4.90;95.40;;;;;;5055747;28;20423;-77
2021/12/10 08:07:05;;;;;;;117.32;105.90;;;4.90;95.60;;;;;;5056451;28;20120;-77
2021/12/10 08:09:33;;;;;;;120.18;108.22;;;4.90;95.60;;;;;;5059600;28;20057;-76
2021/12/10 08:12:00;;;;;;;118.13;106.65;;;4.90;95.90;;;;;;5056445;28;20048;-75
2021/12/10 08:14:27;;;;;;;117.10;105.68;;;4.90;95.50;;;;;;5055229;28;20053;-76
2021/12/10 08:16:54;;;;;;;117.30;106.03;;;4.90;95.70;;;;;;5055486;28;20521;-76
2021/12/10 08:19:21;;;;;;;117.07;105.80;;;4.90;95.40;;;;;;5056116;28;20037;-75
2021/12/10 08:21:48;;;;;;;117.93;106.50;;;4.90;95.60;;;;;;5055958;28;20511;-76
2021/12/10 08:24:15;;;;;;;118.55;107.07;;;4.90;95.70;;;;;;5056233;28;20072;-76
2021/12/10 08:26:43;;;;;;;119.75;108.43;;;4.90;95.80;;;;;;5055777;28;20608;-74
2021/12/10 08:29:11;;;;;;;116.85;105.63;;;4.90;95.60;;;;;;5051995;28;20091;-75
2021/12/10 08:31:39;;;;;;;118.88;107.43;;;4.90;95.70;;;;;;5010567;27;20048;-76
2021/12/10 08:34:07;;;;;;;118.32;106.63;;;5.00;95.80;;;;;;5030838;28;20562;-76
2021/12/10 08:36:35;;;;;;;115.95;104.63;;;5.00;95.80;;;;;;5034899;28;20049;-75
2021/12/10 08:39:05;;;;;;;118.05;106.55;;;5.00;95.80;;;;;;5053605;28;20053;-76
2021/12/10 08:41:34;;;;;;;117.07;105.75;;;5.00;95.70;;;;;;5066392;28;20117;-76
2021/12/10 08:44:03;;;;;;;119.57;107.93;;;5.00;95.70;;;;;;5035539;28;20057;-76
2021/12/10 08:46:30;;;;;;;117.57;105.88;;;5.00;95.80;;;;;;5035205;28;20049;-75
2021/12/10 08:48:59;;;;;;;117.35;106.13;;;5.00;95.60;;;;;;5035538;28;20080;-75
2021/12/10 08:51:31;;;;;;;116.05;104.75;;;5.00;95.70;;;;;;5053752;28;20068;-75
2021/12/10 08:54:00;;;;;;;117.28;105.88;;;5.00;95.70;;;;;;5035884;28;20060;-75
2021/12/10 08:56:27;;;;;;;119.03;107.43;;;5.00;95.80;;;;;;5053835;28;20060;-75
2021/12/10 08:58:56;;;;;;;117.28;106.05;;;5.00;95.80;;;;;;5058638;28;20125;-76
2021/12/10 09:01:30;;;;;;;116.32;104.75;;;5.00;95.80;;;;;;5053584;28;20046;-76
2021/12/10 09:04:01;;;;;;;116.70;105.43;;;5.00;95.80;;;;;;5053776;28;20053;-76
2021/12/10 09:06:31;;;;;;;116.47;105.22;;;5.00;95.90;;;;;;5033149;28;20060;-76
2021/12/10 09:08:58;;;;;;;114.15;102.95;;;5.00;95.80;;;;;;5051873;28;20483;-75
2021/12/10 09:11:26;;;;;;;114.97;103.82;;;5.00;95.60;;;;;;5018972;28;20111;-76
2021/12/10 09:13:53;;;;;;;118.15;106.95;;;4.90;95.50;;;;;;5053244;28;20144;-75
2021/12/10 09:16:25;;;;;;;119.35;107.80;;;4.90;95.80;;;;;;5036115;28;20056;-76
2021/12/10 09:18:57;;;;;;;117.72;106.28;;;4.90;95.70;;;;;;5020879;28;20391;-76
2021/12/10 09:21:25;;;;;;;117.93;106.25;;;4.90;95.90;;;;;;5055879;28;20053;-76
2021/12/10 09:23:56;;;;;;;118.88;107.57;;;5.00;96.00;;;;;;5052564;28;20476;-76
2021/12/10 09:26:27;;;;;;;116.40;105.03;;;5.00;96.20;;;;;;5049296;28;20136;-76
2021/12/10 09:28:54;;;;;;;114.05;103.07;;;5.10;96.10;;;;;;5050421;28;20049;-76
2021/12/10 09:31:24;;;;;;;118.38;106.93;;;5.10;96.10;;;;;;5032895;28;20063;-76
2021/12/10 09:33:54;;;;;;;113.63;102.40;;;5.10;96.20;;;;;;5051613;28;20054;-76
2021/12/10 09:36:21;;;;;;;115.57;104.38;;;5.20;96.20;;;;;;5048043;28;20052;-76
2021/12/10 09:38:49;;;;;;;115.13;104.05;;;5.20;96.20;;;;;;5055286;28;20090;-76
2021/12/10 09:41:17;;;;;;;116.43;105.07;;;5.30;96.50;;;;;;5055076;28;20059;-75
2021/12/10 09:43:45;;;;;;;115.82;104.47;;;5.30;96.00;;;;;;5073277;28;20049;-75
2021/12/10 09:46:13;;;;;;;116.20;105.13;;;5.30;96.00;;;;;;5055464;28;20086;-76
2021/12/10 09:48:42;;;;;;;116.22;104.65;;;5.30;96.20;;;;;;5047767;28;20061;-78
2021/12/10 09:51:12;;;;;;;116.53;105.07;;;5.40;96.20;;;;;;5027812;28;20042;-82
2021/12/10 09:53:41;;;;;;;115.38;104.28;;;5.40;96.20;;;;;;5028920;28;20140;-77
2021/12/10 09:56:09;;;;;;;114.93;103.47;;;5.40;96.50;;;;;;5043288;28;20136;-77
2021/12/10 09:58:36;;;;;;;119.88;108.38;;;5.40;96.00;;;;;;5044109;28;20049;-77
2021/12/10 10:01:07;;;;;;;116.78;105.18;;;5.40;96.30;;;;;;5044929;28;20163;-76
2021/12/10 10:03:37;;;;;;;115.53;104.15;;;5.50;96.30;;;;;;5060058;28;20164;-76
2021/12/10 10:06:06;;;;;;;112.00;100.93;;;5.60;96.40;;;;;;5049162;28;20461;-76
2021/12/10 10:08:36;;;;;;;112.55;101.55;;;5.60;96.40;;;;;;5046337;28;20091;-76
2021/12/10 10:11:10;;;;;;;114.95;103.65;;;5.60;96.70;;;;;;5059080;28;20136;-77
2021/12/10 10:13:39;;;;;;;116.68;105.40;;;5.70;96.60;;;;;;5058073;28;20129;-77
2021/12/10 10:16:08;;;;;;;114.28;103.28;;;5.80;96.40;;;;;;5043653;28;20529;-77
2021/12/10 10:18:37;;;;;;;115.25;103.75;;;5.80;96.20;;;;;;5041993;28;20132;-77
2021/12/10 10:21:09;;;;;;;118.15;106.75;;;5.90;96.20;;;;;;5013223;28;20053;-76
2021/12/10 10:23:38;;;;;;;115.35;103.97;;;5.90;96.20;;;;;;5051365;28;20053;-76
2021/12/10 10:26:08;;;;;;;117.57;106.35;;;5.90;96.20;;;;;;5050274;28;20069;-76
2021/12/10 10:28:36;;;;;;;115.60;104.50;;;6.00;96.30;;;;;;5034244;28;20515;-76
2021/12/10 10:31:10;;;;;;;115.35;104.30;;;6.00;96.10;;;;;;5052189;28;20141;-75
2021/12/10 10:33:40;;;;;;;116.43;105.32;;;6.00;96.00;;;;;;5034474;28;20392;-77
2021/12/10 10:36:18;;;;;;;114.28;103.13;;;6.00;96.10;;;;;;5051924;28;20049;-77
2021/12/10 10:38:49;;;;;;;114.15;103.18;;;6.10;96.50;;;;;;5034545;28;20128;-77
2021/12/10 10:41:19;;;;;;;114.50;103.57;;;6.20;96.50;;;;;;5054042;28;20057;-76
2021/12/10 10:43:46;;;;;;;115.03;104.05;;;6.30;96.10;;;;;;5038330;28;20041;-77
2021/12/10 10:46:13;;;;;;;115.25;104.13;;;6.30;96.40;;;;;;5021688;28;20076;-76
2021/12/10 10:48:41;;;;;;;113.35;102.38;;;6.40;96.20;;;;;;5044561;28;20045;-76
2021/12/10 10:51:11;;;;;;;116.97;105.78;;;6.40;96.00;;;;;;5044044;28;20084;-74
2021/12/10 10:53:44;;;;;;;114.30;103.32;;;6.50;95.70;;;;;;5034804;28;20053;-74
2021/12/10 10:56:14;;;;;;;114.75;103.95;;;6.50;95.60;;;;;;5049209;28;20076;-74
2021/12/10 10:58:45;;;;;;;115.95;105.05;;;6.50;96.10;;;;;;5052667;28;20045;-75
2021/12/10 11:01:22;;;;;;;112.18;101.50;;;6.60;96.20;;;;;;5035286;28;20144;-74
2021/12/10 11:03:53;;;;;;;113.28;102.40;;;6.70;96.10;;;;;;5033359;28;20672;-74
2021/12/10 11:06:27;;;;;;;114.90;104.03;;;6.70;95.50;;;;;;5051181;28;20053;-74
2021/12/10 11:09:04;;;;;;;114.55;103.65;;;6.70;95.80;;;;;;5048963;28;20050;-73
2021/12/10 11:11:41;;;;;;;115.78;104.88;;;6.80;95.60;;;;;;5034122;28;20050;-73
2021/12/10 11:14:11;;;;;;;117.55;106.57;;;6.80;95.70;;;;;;5033305;28;20057;-76
2021/12/10 11:16:42;;;;;;;114.88;104.05;;;6.90;96.10;;;;;;5033269;28;20081;-74
2021/12/10 11:19:12;;;;;;;117.20;106.00;;;7.00;95.70;;;;;;5033910;28;20058;-74
2021/12/10 11:21:44;;;;;;;119.07;107.75;;;7.00;95.50;;;;;;5033521;28;20053;-74
2021/12/10 11:24:19;;;;;;;116.57;105.40;;;7.10;95.50;;;;;;5052612;28;20126;-74
2021/12/10 11:26:53;;;;;;;113.45;102.57;;;7.10;95.50;;;;;;5051685;28;20049;-73
2021/12/10 11:29:34;;;;;;;112.15;101.55;;;7.20;95.80;;;;;;5040360;28;20053;-73
2021/12/10 11:32:05;;;;;;;112.38;101.68;;;7.20;95.10;;;;;;5056010;28;20057;-74
2021/12/10 11:34:51;;;;;;;115.63;104.75;;;7.30;95.60;;;;;;5040123;28;20044;-74
2021/12/10 11:37:38;;;;;;;123.60;111.97;;;7.30;95.40;;;;;;5065918;28;20077;-74
2021/12/10 11:40:07;;;;;;;112.68;101.80;;;7.40;95.60;;;;;;5026319;28;20575;-73
2021/12/10 11:42:43;;;;;;;116.43;105.70;;;7.50;95.50;;;;;;5030885;28;20136;-74
2021/12/10 11:45:31;;;;;;;114.97;103.83;;;7.60;95.30;;;;;;5037544;28;20061;-73
2021/12/10 11:48:07;;;;;;;113.25;102.50;;;7.60;95.00;;;;;;5053075;28;20050;-74
2021/12/10 11:50:36;;;;;;;117.82;106.85;;;7.70;95.00;;;;;;5052737;28;20060;-74
2021/12/10 11:53:07;;;;;;;113.95;103.18;;;7.70;94.80;;;;;;5034984;28;20145;-74
2021/12/10 11:55:35;;;;;;;112.93;102.13;;;7.80;95.10;;;;;;5052641;28;20049;-74
2021/12/10 11:58:05;;;;;;;114.00;103.18;;;7.90;95.30;;;;;;5052235;28;20127;-74
2021/12/10 12:00:35;;;;;;;117.28;106.38;;;8.00;95.00;;;;;;5040843;28;20511;-74
2021/12/10 12:03:06;;;;;;;113.40;102.72;;;8.00;94.90;;;;;;5056965;28;20053;-74
2021/12/10 12:05:37;;;;;;;114.00;103.32;;;8.10;94.20;;;;;;5034999;28;20606;-74
2021/12/10 12:08:07;;;;;;;113.22;102.32;;;8.10;94.30;;;;;;5052966;28;20061;-74
2021/12/10 12:10:38;;;;;;;110.53;100.10;;;8.20;94.60;;;;;;5035332;28;20428;-73
2021/12/10 12:13:20;;;;;;;116.05;105.25;;;8.20;94.20;;;;;;5052808;28;20055;-74
2021/12/10 12:15:51;;;;;;;116.15;105.47;;;8.20;94.20;;;;;;5058155;28;20115;-74
2021/12/10 12:18:26;;;;;;;117.78;106.90;;;8.40;94.30;;;;;;5029870;28;20404;-74
2021/12/10 12:20:55;;;;;;;118.40;107.57;;;8.50;94.30;;;;;;5059160;28;20551;-74
2021/12/10 12:26:14;;;;;;;113.90;103.18;;;8.60;93.70;;;;;;5066234;28;20517;-74
2021/12/10 12:28:46;;;;;;;115.97;105.25;;;8.60;93.40;;;;;;5059837;28;20428;-74
2021/12/10 12:31:16;;;;;;;115.90;105.18;;;8.60;93.20;;;;;;5043594;28;20594;-74
2021/12/10 12:34:06;;;;;;;112.72;101.93;;;8.60;92.80;;;;;;5057851;28;20053;-74
2021/12/10 12:36:42;;;;;;;113.40;102.80;;;8.60;93.50;;;;;;5047817;28;20056;-74
2021/12/10 12:39:13;;;;;;;115.65;104.72;;;8.60;92.80;;;;;;5060268;28;20083;-74
2021/12/10 12:41:42;;;;;;;114.68;103.90;;;8.60;92.80;;;;;;5057391;28;20054;-74